sensor_id;sensor_type;location;lat;lon;timestamp;pressure;altitude;pressure_sealevel;temperature;humidity
71772;BME280;59606;52.138;5.424;2023-05-10T00:01:18;100951.09;;;13.01;100.00
71772;BME280;59606;52.138;5.424;2023-05-10T00:03:44;100949.31;;;13.02;100.00
71772;BME280;59606;52.138;5.424;2023-05-10T00:06:11;100946.69;;;13.02;100.00
71772;BME280;59606;52.138;5.424;2023-05-10T00:08:41;100944.06;;;13.02;100.00
71772;BME280;59606;52.138;5.424;2023-05-10T00:11:07;100946.56;;;13.03;100.00
71772;BME280;59606;52.138;5.424;2023-05-10T00:13:34;100944.91;;;13.02;100.00
71772;BME280;59606;52.138;5.424;2023-05-10T00:16:00;100943.13;;;13.03;100.00
71772;BME280;59606;52.138;5.424;2023-05-10T00:18:27;100946.69;;;13.02;100.00
71772;BME280;59606;52.138;5.424;2023-05-10T00:20:54;100945.84;;;13.01;100.00
71772;BME280;59606;52.138;5.424;2023-05-10T00:23:20;100939.03;;;12.98;100.00
71772;BME280;59606;52.138;5.424;2023-05-10T00:25:46;100939.13;;;12.97;100.00
71772;BME280;59606;52.138;5.424;2023-05-10T00:28:13;100940.91;;;12.96;100.00
71772;BME280;59606;52.138;5.424;2023-05-10T00:30:39;100933.06;;;12.96;100.00
71772;BME280;59606;52.138;5.424;2023-05-10T00:33:06;100939.22;;;12.95;100.00
71772;BME280;59606;52.138;5.424;2023-05-10T00:35:33;100945.41;;;12.94;100.00
71772;BME280;59606;52.138;5.424;2023-05-10T00:38:00;100938.38;;;12.95;100.00
71772;BME280;59606;52.138;5.424;2023-05-10T00:40:27;100938.38;;;12.95;100.00
71772;BME280;59606;52.138;5.424;2023-05-10T00:42:54;100941.09;;;12.93;100.00
71772;BME280;59606;52.138;5.424;2023-05-10T00:45:22;100939.50;;;12.91;100.00
71772;BME280;59606;52.138;5.424;2023-05-10T00:47:49;100945.59;;;12.91;100.00
71772;BME280;59606;52.138;5.424;2023-05-10T00:50:16;100943.63;;;12.95;100.00
71772;BME280;59606;52.138;5.424;2023-05-10T00:52:43;100931.56;;;12.92;100.00
71772;BME280;59606;52.138;5.424;2023-05-10T00:55:11;100934.19;;;12.92;100.00
71772;BME280;59606;52.138;5.424;2023-05-10T00:57:38;100934.19;;;12.92;100.00
71772;BME280;59606;52.138;5.424;2023-05-10T01:00:06;100940.38;;;12.91;100.00
71772;BME280;59606;52.138;5.424;2023-05-10T01:02:34;100940.56;;;12.88;100.00
71772;BME280;59606;52.138;5.424;2023-05-10T01:05:02;100944.09;;;12.87;100.00
71772;BME280;59606;52.138;5.424;2023-05-10T01:07:30;100938.97;;;12.86;100.00
71772;BME280;59606;52.138;5.424;2023-05-10T01:09:57;100944.28;;;12.84;100.00
71772;BME280;59606;52.138;5.424;2023-05-10T01:12:24;100941.75;;;12.83;100.00
71772;BME280;59606;52.138;5.424;2023-05-10T01:14:54;100937.47;;;12.82;100.00
71772;BME280;59606;52.138;5.424;2023-05-10T01:17:21;100936.53;;;12.83;100.00
71772;BME280;59606;52.138;5.424;2023-05-10T01:19:48;100947.09;;;12.81;100.00
71772;BME280;59606;52.138;5.424;2023-05-10T01:36:32;100936.06;;;12.76;100.00
71772;BME280;59606;52.138;5.424;2023-05-10T01:44:56;100943.16;;;12.74;100.00
71772;BME280;59606;52.138;5.424;2023-05-10T01:47:46;100950.09;;;12.75;100.00
71772;BME280;59606;52.138;5.424;2023-05-10T01:50:18;100947.56;;;12.73;100.00
71772;BME280;59606;52.138;5.424;2023-05-10T01:52:56;100945.88;;;12.72;100.00
71772;BME280;59606;52.138;5.424;2023-05-10T01:55:27;100946.84;;;12.71;100.00
71772;BME280;59606;52.138;5.424;2023-05-10T01:58:01;100939.63;;;12.75;100.00
71772;BME280;59606;52.138;5.424;2023-05-10T02:00:29;100941.22;;;12.78;100.00
71772;BME280;59606;52.138;5.424;2023-05-10T02:02:57;100939.44;;;12.78;100.00
71772;BME280;59606;52.138;5.424;2023-05-10T02:05:26;100936.06;;;12.76;100.00
71772;BME280;59606;52.138;5.424;2023-05-10T02:07:56;100943.91;;;12.76;100.00
71772;BME280;59606;52.138;5.424;2023-05-10T02:10:24;100950.16;;;12.73;100.00
71772;BME280;59606;52.138;5.424;2023-05-10T02:12:53;100950.38;;;12.70;100.00
71772;BME280;59606;52.138;5.424;2023-05-10T02:15:23;100952.06;;;12.71;100.00
71772;BME280;59606;52.138;5.424;2023-05-10T02:17:52;100947.66;;;12.72;100.00
71772;BME280;59606;52.138;5.424;2023-05-10T02:20:22;100948.50;;;12.72;100.00
71772;BME280;59606;52.138;5.424;2023-05-10T02:22:51;100956.47;;;12.71;100.00
71772;BME280;59606;52.138;5.424;2023-05-10T02:25:20;100953.09;;;12.69;100.00
71772;BME280;59606;52.138;5.424;2023-05-10T02:27:48;100958.31;;;12.69;100.00
71772;BME280;59606;52.138;5.424;2023-05-10T02:30:15;100958.50;;;12.66;100.00
71772;BME280;59606;52.138;5.424;2023-05-10T02:32:43;100964.56;;;12.66;100.00
71772;BME280;59606;52.138;5.424;2023-05-10T02:35:11;100956.72;;;12.66;100.00
71772;BME280;59606;52.138;5.424;2023-05-10T02:37:38;100961.22;;;12.64;100.00
71772;BME280;59606;52.138;5.424;2023-05-10T02:40:06;100969.13;;;12.63;100.00
71772;BME280;59606;52.138;5.424;2023-05-10T02:42:35;100966.63;;;12.61;100.00
71772;BME280;59606;52.138;5.424;2023-05-10T02:45:07;100977.09;;;12.61;100.00
71772;BME280;59606;52.138;5.424;2023-05-10T02:47:34;100975.19;;;12.63;100.00
71772;BME280;59606;52.138;5.424;2023-05-10T02:50:01;100978.66;;;12.64;100.00
71772;BME280;59606;52.138;5.424;2023-05-10T02:52:30;100975.13;;;12.65;100.00
71772;BME280;59606;52.138;5.424;2023-05-10T02:55:04;100973.41;;;12.64;100.00
71772;BME280;59606;52.138;5.424;2023-05-10T02:57:34;100974.47;;;12.61;100.00
71772;BME280;59606;52.138;5.424;2023-05-10T03:00:01;100972.03;;;12.58;100.00
71772;BME280;59606;52.138;5.424;2023-05-10T03:02:29;100977.47;;;12.55;100.00
71772;BME280;59606;52.138;5.424;2023-05-10T03:04:57;100981.84;;;12.55;100.00
71772;BME280;59606;52.138;5.424;2023-05-10T03:07:23;100981.19;;;12.51;100.00
71772;BME280;59606;52.138;5.424;2023-05-10T03:09:50;100984.91;;;12.47;100.00
71772;BME280;59606;52.138;5.424;2023-05-10T03:15:13;100985.31;;;12.41;100.00
71772;BME280;59606;52.138;5.424;2023-05-10T03:17:55;100982.88;;;12.38;100.00
71772;BME280;59606;52.138;5.424;2023-05-10T03:20:28;100987.16;;;12.39;100.00
71772;BME280;59606;52.138;5.424;2023-05-10T03:23:21;100986.31;;;12.38;100.00
71772;BME280;59606;52.138;5.424;2023-05-10T03:25:46;100998.63;;;12.36;100.00
71772;BME280;59606;52.138;5.424;2023-05-10T03:28:15;100998.72;;;12.35;100.00
71772;BME280;59606;52.138;5.424;2023-05-10T03:30:43;100992.84;;;12.31;100.00
71772;BME280;59606;52.138;5.424;2023-05-10T03:33:11;100998.06;;;12.31;100.00
71772;BME280;59606;52.138;5.424;2023-05-10T03:35:39;100997.97;;;12.33;100.00
71772;BME280;59606;52.138;5.424;2023-05-10T03:38:05;100999.75;;;12.32;100.00
71772;BME280;59606;52.138;5.424;2023-05-10T03:40:32;100995.53;;;12.30;100.00
71772;BME280;59606;52.138;5.424;2023-05-10T03:42:58;100991.13;;;12.30;100.00
71772;BME280;59606;52.138;5.424;2023-05-10T03:45:25;100988.53;;;12.30;100.00
71772;BME280;59606;52.138;5.424;2023-05-10T03:47:52;100983.97;;;12.34;100.00
71772;BME280;59606;52.138;5.424;2023-05-10T03:50:19;100994.34;;;12.35;100.00
71772;BME280;59606;52.138;5.424;2023-05-10T03:52:48;100996.13;;;12.35;100.00
71772;BME280;59606;52.138;5.424;2023-05-10T03:55:14;100993.56;;;12.33;100.00
71772;BME280;59606;52.138;5.424;2023-05-10T03:57:41;101002.25;;;12.34;100.00
71772;BME280;59606;52.138;5.424;2023-05-10T04:00:08;100998.91;;;12.32;100.00
71772;BME280;59606;52.138;5.424;2023-05-10T04:02:35;100999.63;;;12.34;100.00
71772;BME280;59606;52.138;5.424;2023-05-10T04:05:04;100999.75;;;12.32;100.00
71772;BME280;59606;52.138;5.424;2023-05-10T04:07:30;101002.34;;;12.32;100.00
71772;BME280;59606;52.138;5.424;2023-05-10T04:09:57;101004.84;;;12.34;100.00
71772;BME280;59606;52.138;5.424;2023-05-10T04:12:23;101008.34;;;12.34;100.00
71772;BME280;59606;52.138;5.424;2023-05-10T04:14:50;101004.03;;;12.33;100.00
71772;BME280;59606;52.138;5.424;2023-05-10T04:17:17;101011.88;;;12.33;100.00
71772;BME280;59606;52.138;5.424;2023-05-10T04:19:43;101004.97;;;12.32;100.00
71772;BME280;59606;52.138;5.424;2023-05-10T04:22:10;100999.75;;;12.32;100.00
71772;BME280;59606;52.138;5.424;2023-05-10T04:24:36;101005.81;;;12.33;100.00
71772;BME280;59606;52.138;5.424;2023-05-10T04:27:03;101005.03;;;12.31;100.00
71772;BME280;59606;52.138;5.424;2023-05-10T04:29:29;101001.53;;;12.32;100.00
71772;BME280;59606;52.138;5.424;2023-05-10T04:31:55;101003.13;;;12.34;100.00
71772;BME280;59606;52.138;5.424;2023-05-10T04:34:22;101004.84;;;12.34;100.00
71772;BME280;59606;52.138;5.424;2023-05-10T04:36:49;101005.81;;;12.33;100.00
71772;BME280;59606;52.138;5.424;2023-05-10T04:39:16;101005.91;;;12.31;100.00
71772;BME280;59606;52.138;5.424;2023-05-10T04:41:43;101000.69;;;12.31;100.00
71772;BME280;59606;52.138;5.424;2023-05-10T04:44:09;101006.63;;;12.33;100.00
71772;BME280;59606;52.138;5.424;2023-05-10T04:46:36;101011.78;;;12.35;100.00
71772;BME280;59606;52.138;5.424;2023-05-10T04:49:02;101007.41;;;12.35;100.00
71772;BME280;59606;52.138;5.424;2023-05-10T04:51:29;101015.31;;;12.34;100.00
71772;BME280;59606;52.138;5.424;2023-05-10T04:53:55;101023.31;;;12.31;100.00
71772;BME280;59606;52.138;5.424;2023-05-10T04:56:32;101027.47;;;12.35;100.00
71772;BME280;59606;52.138;5.424;2023-05-10T04:58:58;101021.41;;;12.34;100.00
71772;BME280;59606;52.138;5.424;2023-05-10T05:01:25;101025.59;;;12.37;100.00
71772;BME280;59606;52.138;5.424;2023-05-10T05:03:52;101028.13;;;12.38;100.00
71772;BME280;59606;52.138;5.424;2023-05-10T05:06:19;101028.97;;;12.39;100.00
71772;BME280;59606;52.138;5.424;2023-05-10T05:08:47;101032.34;;;12.41;100.00
71772;BME280;59606;52.138;5.424;2023-05-10T05:11:16;101034.94;;;12.41;100.00
71772;BME280;59606;52.138;5.424;2023-05-10T05:13:43;101036.63;;;12.42;100.00
71772;BME280;59606;52.138;5.424;2023-05-10T05:16:09;101033.25;;;12.40;100.00
71772;BME280;59606;52.138;5.424;2023-05-10T05:18:37;101039.97;;;12.44;100.00
71772;BME280;59606;52.138;5.424;2023-05-10T05:21:13;101039.13;;;12.43;100.00
71772;BME280;59606;52.138;5.424;2023-05-10T05:23:40;101041.66;;;12.45;100.00
71772;BME280;59606;52.138;5.424;2023-05-10T05:26:06;101039.78;;;12.47;100.00
71772;BME280;59606;52.138;5.424;2023-05-10T05:28:33;101042.41;;;12.47;100.00
71772;BME280;59606;52.138;5.424;2023-05-10T05:31:04;101050.88;;;12.50;100.00
71772;BME280;59606;52.138;5.424;2023-05-10T05:33:31;101051.75;;;12.51;100.00
71772;BME280;59606;52.138;5.424;2023-05-10T05:36:02;101052.59;;;12.52;100.00
71772;BME280;59606;52.138;5.424;2023-05-10T05:38:29;101061.16;;;12.54;100.00
71772;BME280;59606;52.138;5.424;2023-05-10T05:40:56;101055.28;;;12.50;100.00
71772;BME280;59606;52.138;5.424;2023-05-10T05:43:23;101055.28;;;12.50;100.00
71772;BME280;59606;52.138;5.424;2023-05-10T05:45:49;101059.50;;;12.53;100.00
71772;BME280;59606;52.138;5.424;2023-05-10T05:48:23;101053.25;;;12.55;100.00
71772;BME280;59606;52.138;5.424;2023-05-10T05:50:49;101058.38;;;12.57;100.00
71772;BME280;59606;52.138;5.424;2023-05-10T05:53:16;101069.88;;;12.54;100.00
71772;BME280;59606;52.138;5.424;2023-05-10T05:55:56;101065.66;;;12.52;100.00
71772;BME280;59606;52.138;5.424;2023-05-10T05:58:24;101065.72;;;12.50;100.00
71772;BME280;59606;52.138;5.424;2023-05-10T06:00:51;101066.78;;;12.47;100.00
71772;BME280;59606;52.138;5.424;2023-05-10T06:03:18;101081.69;;;12.45;100.00
71772;BME280;59606;52.138;5.424;2023-05-10T06:05:45;101086.25;;;12.42;100.00
71772;BME280;59606;52.138;5.424;2023-05-10T06:08:12;101082.03;;;12.39;100.00
71772;BME280;59606;52.138;5.424;2023-05-10T06:10:38;101074.13;;;12.41;100.00
71772;BME280;59606;52.138;5.424;2023-05-10T06:13:05;101084.38;;;12.44;100.00
71772;BME280;59606;52.138;5.424;2023-05-10T06:15:31;101082.53;;;12.46;100.00
71772;BME280;59606;52.138;5.424;2023-05-10T06:17:58;101091.31;;;12.45;100.00
71772;BME280;59606;52.138;5.424;2023-05-10T06:20:25;101088.88;;;12.42;100.00
71772;BME280;59606;52.138;5.424;2023-05-10T06:22:52;101095.78;;;12.43;100.00
71772;BME280;59606;52.138;5.424;2023-05-10T06:25:18;101102.66;;;12.44;100.00
71772;BME280;59606;52.138;5.424;2023-05-10T06:27:45;101101.84;;;12.43;100.00
71772;BME280;59606;52.138;5.424;2023-05-10T06:30:16;101096.53;;;12.45;100.00
71772;BME280;59606;52.138;5.424;2023-05-10T06:32:42;101096.34;;;12.48;100.00
71772;BME280;59606;52.138;5.424;2023-05-10T06:35:10;101091.03;;;12.49;100.00
71772;BME280;59606;52.138;5.424;2023-05-10T06:37:37;101097.09;;;12.50;100.00
71772;BME280;59606;52.138;5.424;2023-05-10T06:40:04;101095.31;;;12.50;100.00
71772;BME280;59606;52.138;5.424;2023-05-10T06:42:31;101099.53;;;12.53;100.00
71772;BME280;59606;52.138;5.424;2023-05-10T06:44:57;101102.97;;;12.54;100.00
71772;BME280;59606;52.138;5.424;2023-05-10T06:47:24;101106.47;;;12.54;100.00
71772;BME280;59606;52.138;5.424;2023-05-10T06:49:51;101108.13;;;12.55;100.00
71772;BME280;59606;52.138;5.424;2023-05-10T06:52:17;101109.81;;;12.56;100.00
71772;BME280;59606;52.138;5.424;2023-05-10T06:54:44;101116.91;;;12.54;100.00
71772;BME280;59606;52.138;5.424;2023-05-10T06:57:10;101104.75;;;12.53;100.00
71772;BME280;59606;52.138;5.424;2023-05-10T06:59:56;101115.03;;;12.56;100.00
71772;BME280;59606;52.138;5.424;2023-05-10T07:02:23;101119.31;;;12.57;100.00
71772;BME280;59606;52.138;5.424;2023-05-10T07:04:50;101121.84;;;12.59;100.00
71772;BME280;59606;52.138;5.424;2023-05-10T07:07:18;101121.75;;;12.60;100.00
71772;BME280;59606;52.138;5.424;2023-05-10T07:09:45;101118.97;;;12.63;100.00
71772;BME280;59606;52.138;5.424;2023-05-10T07:12:12;101128.41;;;12.66;100.00
71772;BME280;59606;52.138;5.424;2023-05-10T07:14:41;101131.38;;;12.60;100.00
71772;BME280;59606;52.138;5.424;2023-05-10T07:17:07;101134.94;;;12.59;100.00
71772;BME280;59606;52.138;5.424;2023-05-10T07:19:38;101130.44;;;12.61;100.00
71772;BME280;59606;52.138;5.424;2023-05-10T07:22:05;101132.22;;;12.60;100.00
71772;BME280;59606;52.138;5.424;2023-05-10T07:24:32;101132.88;;;12.64;100.00
71772;BME280;59606;52.138;5.424;2023-05-10T07:26:59;101135.22;;;12.68;100.00
71772;BME280;59606;52.138;5.424;2023-05-10T07:29:26;101137.84;;;12.68;100.00
71772;BME280;59606;52.138;5.424;2023-05-10T07:31:53;101142.97;;;12.70;100.00
71772;BME280;59606;52.138;5.424;2023-05-10T07:34:24;101140.84;;;12.77;100.00
71772;BME280;59606;52.138;5.424;2023-05-10T07:36:51;101142.44;;;12.79;100.00
71772;BME280;59606;52.138;5.424;2023-05-10T07:39:17;101149.50;;;12.77;100.00
71772;BME280;59606;52.138;5.424;2023-05-10T07:41:54;101151.78;;;12.83;100.00
71772;BME280;59606;52.138;5.424;2023-05-10T07:44:20;101148.69;;;12.91;100.00
71772;BME280;59606;52.138;5.424;2023-05-10T07:46:47;101157.13;;;12.96;100.00
71772;BME280;59606;52.138;5.424;2023-05-10T07:49:14;101156.94;;;12.99;100.00
71772;BME280;59606;52.138;5.424;2023-05-10T07:51:40;101164.59;;;13.02;100.00
71772;BME280;59606;52.138;5.424;2023-05-10T07:54:08;101161.63;;;13.08;100.00
71772;BME280;59606;52.138;5.424;2023-05-10T07:56:34;101161.53;;;13.10;100.00
71772;BME280;59606;52.138;5.424;2023-05-10T07:59:03;101164.72;;;13.15;100.00
71772;BME280;59606;52.138;5.424;2023-05-10T08:01:31;101170.69;;;13.17;100.00
71772;BME280;59606;52.138;5.424;2023-05-10T08:03:59;101169.00;;;13.16;100.00
71772;BME280;59606;52.138;5.424;2023-05-10T08:06:30;101167.03;;;13.19;100.00
71772;BME280;59606;52.138;5.424;2023-05-10T08:08:56;101173.03;;;13.21;100.00
71772;BME280;59606;52.138;5.424;2023-05-10T08:11:23;101167.03;;;13.19;100.00
71772;BME280;59606;52.138;5.424;2023-05-10T08:13:50;101176.38;;;13.24;100.00
71772;BME280;59606;52.138;5.424;2023-05-10T08:16:17;101182.47;;;13.24;100.00
71772;BME280;59606;52.138;5.424;2023-05-10T08:18:44;101180.88;;;13.21;100.00
71772;BME280;59606;52.138;5.424;2023-05-10T08:21:13;101180.72;;;13.25;100.00
71772;BME280;59606;52.138;5.424;2023-05-10T08:23:40;101193.03;;;13.23;100.00
71772;BME280;59606;52.138;5.424;2023-05-10T08:26:07;101186.47;;;13.15;100.00
71772;BME280;59606;52.138;5.424;2023-05-10T08:28:33;101193.31;;;13.18;100.00
71772;BME280;59606;52.138;5.424;2023-05-10T08:31:00;101187.03;;;13.20;100.00
71772;BME280;59606;52.138;5.424;2023-05-10T08:33:26;101185.16;;;13.23;100.00
71772;BME280;59606;52.138;5.424;2023-05-10T08:35:53;101198.09;;;13.26;100.00
71772;BME280;59606;52.138;5.424;2023-05-10T08:38:19;101204.19;;;13.26;100.00
71772;BME280;59606;52.138;5.424;2023-05-10T08:40:47;101204.28;;;13.25;100.00
71772;BME280;59606;52.138;5.424;2023-05-10T08:43:15;101207.72;;;13.25;99.82
71772;BME280;59606;52.138;5.424;2023-05-10T08:45:43;101211.25;;;13.24;100.00
71772;BME280;59606;52.138;5.424;2023-05-10T08:48:11;101212.19;;;13.23;99.41
71772;BME280;59606;52.138;5.424;2023-05-10T08:50:39;101215.72;;;13.22;99.62
71772;BME280;59606;52.138;5.424;2023-05-10T08:53:10;101225.25;;;13.23;99.87
71772;BME280;59606;52.138;5.424;2023-05-10T08:55:38;101223.47;;;13.24;98.91
71772;BME280;59606;52.138;5.424;2023-05-10T08:58:05;101223.31;;;13.27;99.55
71772;BME280;59606;52.138;5.424;2023-05-10T09:00:33;101223.50;;;13.38;100.00
71772;BME280;59606;52.138;5.424;2023-05-10T09:03:01;101219.91;;;13.55;100.00
71772;BME280;59606;52.138;5.424;2023-05-10T09:05:28;101225.66;;;13.74;99.48
71772;BME280;59606;52.138;5.424;2023-05-10T09:07:54;101224.44;;;13.80;98.56
71772;BME280;59606;52.138;5.424;2023-05-10T09:10:22;101220.50;;;13.87;98.23
71772;BME280;59606;52.138;5.424;2023-05-10T09:12:53;101227.81;;;13.96;96.71
71772;BME280;59606;52.138;5.424;2023-05-10T09:15:24;101218.72;;;14.02;96.90
71772;BME280;59606;52.138;5.424;2023-05-10T09:17:51;101227.22;;;14.05;96.63
71772;BME280;59606;52.138;5.424;2023-05-10T09:20:17;101218.13;;;14.11;96.07
71772;BME280;59606;52.138;5.424;2023-05-10T09:22:44;101227.00;;;14.23;95.41
71772;BME280;59606;52.138;5.424;2023-05-10T09:25:15;101228.63;;;14.38;95.20
71772;BME280;59606;52.138;5.424;2023-05-10T09:27:46;101225.41;;;14.47;93.94
71772;BME280;59606;52.138;5.424;2023-05-10T09:32:50;101233.59;;;14.70;90.89
71772;BME280;59606;52.138;5.424;2023-05-10T09:35:18;101238.88;;;14.95;93.09
71772;BME280;59606;52.138;5.424;2023-05-10T09:37:47;101243.31;;;15.20;92.22
71772;BME280;59606;52.138;5.424;2023-05-10T09:40:18;101243.44;;;15.31;90.97
71772;BME280;59606;52.138;5.424;2023-05-10T09:43:07;101241.84;;;15.42;89.62
71772;BME280;59606;52.138;5.424;2023-05-10T09:45:35;101248.16;;;15.52;87.54
71772;BME280;59606;52.138;5.424;2023-05-10T09:48:04;101248.06;;;15.53;86.32
71772;BME280;59606;52.138;5.424;2023-05-10T09:50:31;101253.31;;;15.53;85.17
71772;BME280;59606;52.138;5.424;2023-05-10T09:53:02;101252.56;;;15.51;84.58
71772;BME280;59606;52.138;5.424;2023-05-10T09:58:05;101261.50;;;15.36;85.59
71772;BME280;59606;52.138;5.424;2023-05-10T10:00:38;101263.28;;;15.23;86.23
71772;BME280;59606;52.138;5.424;2023-05-10T10:03:05;101267.16;;;15.17;87.42
71772;BME280;59606;52.138;5.424;2023-05-10T10:05:33;101263.69;;;15.17;87.30
71772;BME280;59606;52.138;5.424;2023-05-10T10:08:04;101264.84;;;15.13;88.61
71772;BME280;59606;52.138;5.424;2023-05-10T10:10:31;101269.47;;;15.09;89.09
71772;BME280;59606;52.138;5.424;2023-05-10T10:12:58;101260.00;;;15.06;87.66
71772;BME280;59606;52.138;5.424;2023-05-10T10:15:26;101269.94;;;15.01;88.67
71772;BME280;59606;52.138;5.424;2023-05-10T10:17:53;101268.81;;;15.05;89.60
71772;BME280;59606;52.138;5.424;2023-05-10T10:20:22;101270.94;;;15.13;88.77
71772;BME280;59606;52.138;5.424;2023-05-10T10:22:49;101272.19;;;15.20;89.94
71772;BME280;59606;52.138;5.424;2023-05-10T10:25:17;101276.41;;;15.36;89.81
71772;BME280;59606;52.138;5.424;2023-05-10T10:33:01;101281.44;;;15.51;87.67
71772;BME280;59606;52.138;5.424;2023-05-10T10:35:53;101282.31;;;15.39;86.03
71772;BME280;59606;52.138;5.424;2023-05-10T10:38:20;101283.13;;;15.27;86.51
71772;BME280;59606;52.138;5.424;2023-05-10T10:41:01;101273.16;;;15.19;86.57
71772;BME280;59606;52.138;5.424;2023-05-10T10:43:29;101282.06;;;15.17;86.54
71772;BME280;59606;52.138;5.424;2023-05-10T10:46:14;101277.78;;;15.16;86.51
71772;BME280;59606;52.138;5.424;2023-05-10T10:48:50;101278.16;;;15.22;87.93
71772;BME280;59606;52.138;5.424;2023-05-10T10:51:17;101279.25;;;15.32;87.80
71772;BME280;59606;52.138;5.424;2023-05-10T10:53:44;101285.84;;;15.38;86.37
71772;BME280;59606;52.138;5.424;2023-05-10T10:56:13;101275.69;;;15.46;86.16
71772;BME280;59606;52.138;5.424;2023-05-10T10:58:49;101285.97;;;15.49;86.42
71772;BME280;59606;52.138;5.424;2023-05-10T11:01:18;101284.81;;;15.53;85.88
71772;BME280;59606;52.138;5.424;2023-05-10T11:06:33;101284.81;;;15.53;85.45
71772;BME280;59606;52.138;5.424;2023-05-10T11:09:07;101289.88;;;15.56;85.02
71772;BME280;59606;52.138;5.424;2023-05-10T11:11:35;101285.97;;;15.62;85.86
71772;BME280;59606;52.138;5.424;2023-05-10T11:14:05;101293.63;;;15.65;86.37
71772;BME280;59606;52.138;5.424;2023-05-10T11:16:42;101293.84;;;15.62;86.14
71772;BME280;59606;52.138;5.424;2023-05-10T11:19:16;101292.38;;;15.58;85.76
71772;BME280;59606;52.138;5.424;2023-05-10T11:24:33;101291.53;;;15.45;85.10
71772;BME280;59606;52.138;5.424;2023-05-10T11:27:00;101286.06;;;15.35;85.99
71772;BME280;59606;52.138;5.424;2023-05-10T11:29:27;101291.84;;;15.40;87.27
71772;BME280;59606;52.138;5.424;2023-05-10T11:31:57;101291.22;;;15.49;87.13
71772;BME280;59606;52.138;5.424;2023-05-10T11:34:28;101292.06;;;15.63;86.72
71772;BME280;59606;52.138;5.424;2023-05-10T11:37:01;101296.91;;;15.82;84.72
71772;BME280;59606;52.138;5.424;2023-05-10T11:39:31;101299.31;;;15.97;84.38
71772;BME280;59606;52.138;5.424;2023-05-10T11:41:58;101300.22;;;16.09;84.18
71772;BME280;59606;52.138;5.424;2023-05-10T11:44:32;101288.81;;;16.34;83.96
71772;BME280;59606;52.138;5.424;2023-05-10T11:47:00;101289.63;;;16.47;81.58
71772;BME280;59606;52.138;5.424;2023-05-10T11:49:27;101281.91;;;16.57;81.29
71772;BME280;59606;52.138;5.424;2023-05-10T11:52:03;101286.84;;;16.73;83.32
71772;BME280;59606;52.138;5.424;2023-05-10T11:54:30;101283.94;;;16.78;81.70
71772;BME280;59606;52.138;5.424;2023-05-10T11:56:57;101292.66;;;16.78;79.92
71772;BME280;59606;52.138;5.424;2023-05-10T11:59:25;101292.13;;;16.73;81.42
71772;BME280;59606;52.138;5.424;2023-05-10T12:01:51;101293.44;;;16.67;80.47
71772;BME280;59606;52.138;5.424;2023-05-10T12:04:18;101298.84;;;16.53;80.07
71772;BME280;59606;52.138;5.424;2023-05-10T12:06:45;101302.25;;;16.42;80.22
71772;BME280;59606;52.138;5.424;2023-05-10T12:09:14;101302.19;;;16.31;80.59
71772;BME280;59606;52.138;5.424;2023-05-10T12:11:41;101299.66;;;16.30;82.14
71772;BME280;59606;52.138;5.424;2023-05-10T12:14:10;101304.69;;;16.33;83.22
71772;BME280;59606;52.138;5.424;2023-05-10T12:16:37;101303.19;;;16.41;82.77
71772;BME280;59606;52.138;5.424;2023-05-10T12:19:03;101308.66;;;16.51;83.33
71772;BME280;59606;52.138;5.424;2023-05-10T12:21:32;101312.22;;;16.50;81.37
71772;BME280;59606;52.138;5.424;2023-05-10T12:24:02;101304.44;;;16.48;79.26
71772;BME280;59606;52.138;5.424;2023-05-10T12:26:29;101298.84;;;16.53;79.25
71772;BME280;59606;52.138;5.424;2023-05-10T12:29:12;101307.28;;;16.69;79.50
71772;BME280;59606;52.138;5.424;2023-05-10T12:31:58;101297.25;;;16.87;79.32
71772;BME280;59606;52.138;5.424;2023-05-10T12:34:35;101304.34;;;16.98;78.79
71772;BME280;59606;52.138;5.424;2023-05-10T12:37:03;101300.31;;;17.05;77.28
71772;BME280;59606;52.138;5.424;2023-05-10T12:39:58;101292.38;;;17.40;78.21
71772;BME280;59606;52.138;5.424;2023-05-10T12:42:25;101298.03;;;17.58;74.55
71772;BME280;59606;52.138;5.424;2023-05-10T12:44:57;101307.84;;;17.56;73.24
71772;BME280;59606;52.138;5.424;2023-05-10T12:47:24;101297.28;;;17.56;75.57
71772;BME280;59606;52.138;5.424;2023-05-10T12:49:51;101303.41;;;17.57;73.56
71772;BME280;59606;52.138;5.424;2023-05-10T12:52:17;101305.09;;;17.58;74.77
71772;BME280;59606;52.138;5.424;2023-05-10T12:54:44;101292.66;;;17.71;75.77
71772;BME280;59606;52.138;5.424;2023-05-10T12:57:10;101308.97;;;17.76;73.89
71772;BME280;59606;52.138;5.424;2023-05-10T12:59:37;101308.22;;;17.74;73.54
71772;BME280;59606;52.138;5.424;2023-05-10T13:02:03;101312.41;;;17.65;73.41
71772;BME280;59606;52.138;5.424;2023-05-10T13:04:30;101313.97;;;17.68;74.23
71772;BME280;59606;52.138;5.424;2023-05-10T13:06:56;101315.88;;;17.66;73.67
71772;BME280;59606;52.138;5.424;2023-05-10T13:09:26;101315.28;;;17.62;75.58
71772;BME280;59606;52.138;5.424;2023-05-10T13:11:53;101310.00;;;17.62;75.15
71772;BME280;59606;52.138;5.424;2023-05-10T13:14:20;101317.53;;;17.56;74.52
71772;BME280;59606;52.138;5.424;2023-05-10T13:16:47;101314.66;;;17.48;74.39
71772;BME280;59606;52.138;5.424;2023-05-10T13:19:16;101320.41;;;17.41;75.44
71772;BME280;59606;52.138;5.424;2023-05-10T13:21:43;101335.41;;;17.17;76.18
71772;BME280;59606;52.138;5.424;2023-05-10T13:24:11;101340.91;;;16.90;78.69
71772;BME280;59606;52.138;5.424;2023-05-10T13:26:40;101337.91;;;16.46;80.63
71772;BME280;59606;52.138;5.424;2023-05-10T13:29:07;101336.38;;;16.18;82.11